Terminal Aerodrome Forecast
Issued by NWS

Home | Current Version | Previous Version | Text Only | Print | Product List | Glossary On
Versions: 1 2 3 4 5 6 7 8 9 10 11 12 13 14 15
000
FTUS44 KMAF 262300
TAFHOB
TAF
KHOB 262320Z 2700/2724 21011KT P6SM SCT200
     FM271000 15011KT P6SM OVC006
     FM271600 15011G20KT P6SM FEW100=

USA.gov is the U.S. government's official web portal to all federal, state and local government web resources and services.